Jeffersonville, OH

8:28 AM EDT on May 24, 2015 (GMT -0400)
Bolton | | Change Station
CLOSE
Current Station
Airport
Location: Bolton Field,
Elevation: 906 ft
Nearby Weather Stations

Elev 906 ft 39.90 °N, 83.14 °W | Updated 33 minutes ago

Clear
Clear
61 °F
Feels Like 61 °F
N
0
Wind Variable Wind from North

Today
High -- | Low -- °F
--% Chance of Precip.
Yesterday
High -- | Low -- °F
Precip. -- in
6:13 AM 8:49 PM
Waxing Crescent, 39% visible
Pressure 30.33 in
Visibility 7.0 miles
Clouds Clear
Dew Point 50 °F
Humidity 68%
Rainfall 0.00 in
Snow Depth Not available.
UV 1 out of 12
Pollen 9.30 out of 12
Air Quality Not available.
Flu Activity Local Activity
METAR KTZR 241155Z 00000KT 7SM SKC 16/10 A3033

More Conditions Fewer Conditions

Pressure 30.33 in
Visibility 7.0 miles
Clouds Clear
Dew Point 50 °F
Humidity 68%
Rainfall 0.00 in
Snow Depth Not available.
UV 1 out of 12
Pollen 9.30 out of 12
Air Quality Not available.
Flu Activity Local Activity
METAR KTZR 241155Z 00000KT 7SM SKC 16/10 A3033

More Conditions Fewer Conditions

10-Day Weather Forecast

Almanac

Astronomy

May. 24, 2015 Rise Set
Actual Time
Civil Twilight
Nautical Twilight
Astronomical Twilight
Moon
Length of Visible Light
Length of Day
Tomorrow will be .
, % of the Moon is Illuminated

Today's Extremes

State Highs State Lows

Community

WunderPhotos

Upload Photos

1,823,724 photos uploaded!

WunderBlogs® & News

Nearby

Air Quality

  Air Quality AQ Index Pollutant
Not available.

Snow Depth

Station Depth Elevation

Earthquake Activity

City Distance Mag. Time & Date
Minimum magnitude displayed is 2.5.

Coastal Water Temperatures

Place Temperature

Stations

Nearby Weather Stations

Station Location Temp. Windchill Dew Point Humidity Wind Precip. Elev Updated Type